createdAt,value
2017-07-22T00:01:12.058Z,98343
2017-07-22T00:03:40.122Z,98409
2017-07-22T00:06:08.259Z,98398
2017-07-22T00:08:36.331Z,98387
2017-07-22T00:11:04.405Z,98402
2017-07-22T00:13:32.474Z,98382
2017-07-22T00:16:00.554Z,98374
2017-07-22T00:18:28.619Z,98378
2017-07-22T00:20:56.699Z,98384
2017-07-22T00:23:24.768Z,98376
2017-07-22T00:25:52.840Z,98374
2017-07-22T00:28:20.908Z,98370
2017-07-22T00:30:48.971Z,98377
2017-07-22T00:33:17.357Z,98391
2017-07-22T00:35:45.418Z,98410
2017-07-22T00:38:13.487Z,98413
2017-07-22T00:40:41.560Z,98399
2017-07-22T00:43:09.630Z,98401
2017-07-22T00:45:37.704Z,98402
2017-07-22T00:48:05.775Z,98420
2017-07-22T00:50:33.851Z,98411
2017-07-22T00:53:01.922Z,98403
2017-07-22T00:55:30.011Z,98408
2017-07-22T00:57:58.087Z,98413
2017-07-22T01:00:26.151Z,98412
2017-07-22T01:02:54.212Z,98419
2017-07-22T01:05:22.321Z,98410
2017-07-22T01:07:51.199Z,98414
2017-07-22T01:10:20.049Z,98418
2017-07-22T01:12:48.120Z,98417
2017-07-22T01:15:16.188Z,98429
2017-07-22T01:17:44.262Z,98434
2017-07-22T01:20:12.334Z,98420
2017-07-22T01:22:40.419Z,98436
2017-07-22T01:25:08.490Z,98420
2017-07-22T01:27:36.555Z,98425
2017-07-22T01:30:04.623Z,98426
2017-07-22T01:32:32.693Z,98432
2017-07-22T01:35:00.759Z,98433
2017-07-22T01:37:28.849Z,98436
2017-07-22T01:39:56.910Z,98432
2017-07-22T01:42:24.985Z,98441
2017-07-22T01:44:53.042Z,98445
2017-07-22T01:47:21.126Z,98442
2017-07-22T01:49:49.199Z,98447
2017-07-22T01:52:17.271Z,98449
2017-07-22T01:54:45.343Z,98455
2017-07-22T01:57:13.415Z,98458
2017-07-22T01:59:41.486Z,98461
2017-07-22T02:02:09.968Z,98458
2017-07-22T02:04:38.026Z,98466
2017-07-22T02:07:06.090Z,98464
2017-07-22T02:09:34.164Z,98454
2017-07-22T02:12:02.248Z,98464
2017-07-22T02:14:30.315Z,98463
2017-07-22T02:16:58.385Z,98459
2017-07-22T02:19:26.455Z,98450
2017-07-22T02:21:54.831Z,98447
2017-07-22T02:24:22.899Z,98444
2017-07-22T02:26:50.963Z,98434
2017-07-22T02:29:19.811Z,98443
2017-07-22T02:31:47.883Z,98447
2017-07-22T02:34:15.961Z,98443
2017-07-22T02:36:44.029Z,98454
2017-07-22T02:39:12.131Z,98460
2017-07-22T02:41:40.968Z,98472
2017-07-22T02:44:09.042Z,98478
2017-07-22T02:46:37.113Z,98480
2017-07-22T02:49:05.191Z,98487
2017-07-22T02:51:33.256Z,98498
2017-07-22T02:54:01.350Z,98497
2017-07-22T02:56:29.427Z,98499
2017-07-22T02:58:57.495Z,98504
2017-07-22T03:01:25.649Z,98501
2017-07-22T03:03:53.702Z,98495
2017-07-22T03:06:21.776Z,98498
2017-07-22T03:08:49.834Z,98496
2017-07-22T03:11:17.911Z,98499
2017-07-22T03:13:45.973Z,98489
2017-07-22T03:16:14.835Z,98488
2017-07-22T03:18:42.915Z,98485
2017-07-22T03:21:10.995Z,98475
2017-07-22T03:23:39.431Z,98473
2017-07-22T03:26:07.495Z,98469
2017-07-22T03:28:35.615Z,98467
2017-07-22T03:31:03.687Z,98474
2017-07-22T03:33:31.750Z,98479
2017-07-22T03:35:59.811Z,98479
2017-07-22T03:38:27.883Z,98472
2017-07-22T03:40:55.949Z,98478
2017-07-22T03:43:24.023Z,98476
2017-07-22T03:45:52.100Z,98484
2017-07-22T03:48:20.204Z,98482
2017-07-22T03:50:48.258Z,98496
2017-07-22T03:53:16.330Z,98507
2017-07-22T03:55:44.401Z,98504
2017-07-22T03:58:12.475Z,98503
2017-07-22T04:00:40.682Z,98512
2017-07-22T04:03:09.531Z,98512
2017-07-22T04:05:37.603Z,98510
2017-07-22T04:08:05.674Z,98505
2017-07-22T04:10:33.740Z,98503
2017-07-22T04:13:01.820Z,98507
2017-07-22T04:15:29.880Z,98514
2017-07-22T04:17:57.946Z,98508
2017-07-22T04:20:26.030Z,98509
2017-07-22T04:22:54.097Z,98494
2017-07-22T04:25:22.172Z,98499
2017-07-22T04:27:50.253Z,98500
2017-07-22T04:30:18.322Z,98507
2017-07-22T04:32:46.391Z,98515
2017-07-22T04:35:14.974Z,98518
2017-07-22T04:37:43.047Z,98515
2017-07-22T04:40:11.123Z,98521
2017-07-22T04:42:39.200Z,98543
2017-07-22T04:45:07.263Z,98547
2017-07-22T04:47:35.416Z,98545
2017-07-22T04:50:03.505Z,98551
2017-07-22T04:52:31.566Z,98554
2017-07-22T04:55:00.399Z,98552
2017-07-22T04:57:28.472Z,98565
2017-07-22T04:59:56.539Z,98569
2017-07-22T05:02:24.611Z,98567
2017-07-22T05:04:52.674Z,98568
2017-07-22T05:07:20.759Z,98579
2017-07-22T05:09:48.826Z,98572
2017-07-22T05:12:16.903Z,98577
2017-07-22T05:14:45.316Z,98582
2017-07-22T05:17:14.251Z,98582
2017-07-22T05:19:42.322Z,98587
2017-07-22T05:22:11.234Z,98587
2017-07-22T05:24:39.302Z,98589
2017-07-22T05:27:07.374Z,98585
2017-07-22T05:29:35.450Z,98591
2017-07-22T05:32:03.519Z,98593
2017-07-22T05:34:31.638Z,98597
2017-07-22T05:36:59.703Z,98591
2017-07-22T05:39:27.775Z,98596
2017-07-22T05:41:55.840Z,98593
2017-07-22T05:44:24.732Z,98597
2017-07-22T05:46:52.844Z,98592
2017-07-22T05:49:20.925Z,98591
2017-07-22T05:51:48.986Z,98604
2017-07-22T05:54:17.067Z,98594
2017-07-22T05:56:45.128Z,98602
2017-07-22T05:59:13.196Z,98602
2017-07-22T06:01:41.475Z,98607
2017-07-22T06:04:09.550Z,98609
2017-07-22T06:06:37.634Z,98615
2017-07-22T06:09:05.701Z,98609
2017-07-22T06:11:33.762Z,98620
2017-07-22T06:14:01.835Z,98620
2017-07-22T06:16:29.907Z,98620
2017-07-22T06:18:57.977Z,98622
2017-07-22T06:21:26.055Z,98628
2017-07-22T06:23:54.126Z,98624
2017-07-22T06:26:22.199Z,98623
2017-07-22T06:28:50.379Z,98644
2017-07-22T06:31:18.447Z,98637
2017-07-22T06:33:46.513Z,98644
2017-07-22T06:36:14.591Z,98653
2017-07-22T06:38:42.694Z,98641
2017-07-22T06:41:10.847Z,98644
2017-07-22T06:43:38.931Z,98656
2017-07-22T06:46:07.003Z,98648
2017-07-22T06:48:35.076Z,98655
2017-07-22T06:51:03.284Z,98651
2017-07-22T06:53:32.118Z,98654
2017-07-22T06:56:00.191Z,98644
2017-07-22T06:58:28.262Z,98651
2017-07-22T07:00:56.343Z,98655
2017-07-22T07:03:25.219Z,98657
2017-07-22T07:05:53.303Z,98652
2017-07-22T07:08:21.382Z,98658
2017-07-22T07:10:49.444Z,98654
2017-07-22T07:13:17.512Z,98652
2017-07-22T07:15:45.586Z,98663
2017-07-22T07:18:13.657Z,98657
2017-07-22T07:20:41.729Z,98664
2017-07-22T07:23:09.904Z,98670
2017-07-22T07:25:37.987Z,98667
2017-07-22T07:28:06.091Z,98678
2017-07-22T07:30:34.173Z,98671
2017-07-22T07:33:02.239Z,98670
2017-07-22T07:35:30.307Z,98672
2017-07-22T07:37:58.391Z,98669
2017-07-22T07:40:26.463Z,98663
2017-07-22T07:42:54.519Z,98667
2017-07-22T07:45:22.583Z,98658
2017-07-22T07:47:50.654Z,98663
2017-07-22T07:50:18.724Z,98672
2017-07-22T07:52:46.794Z,98668
2017-07-22T07:55:14.867Z,98676
2017-07-22T07:57:42.949Z,98665
2017-07-22T08:00:11.005Z,98671
2017-07-22T08:02:39.083Z,98667
2017-07-22T08:05:07.156Z,98674
2017-07-22T08:07:35.230Z,98668
2017-07-22T08:10:03.299Z,98671
2017-07-22T08:12:31.367Z,98676
2017-07-22T08:14:59.444Z,98671
2017-07-22T08:17:27.507Z,98659
2017-07-22T08:19:55.592Z,98672
2017-07-22T08:22:23.663Z,98675
2017-07-22T08:24:51.736Z,98670
2017-07-22T08:27:19.795Z,98666
2017-07-22T08:29:47.868Z,98670
2017-07-22T08:32:15.931Z,98676
2017-07-22T08:34:43.997Z,98661
2017-07-22T08:37:12.073Z,98666
2017-07-22T08:39:40.143Z,98658
2017-07-22T08:42:08.222Z,98666
2017-07-22T08:44:37.141Z,98661
2017-07-22T08:47:05.223Z,98660
2017-07-22T08:49:33.428Z,98663
2017-07-22T08:52:01.528Z,98661
2017-07-22T08:54:29.598Z,98661
2017-07-22T08:56:57.679Z,98668
2017-07-22T08:59:25.744Z,98656
2017-07-22T09:01:53.872Z,98659
2017-07-22T09:04:22.723Z,98661
2017-07-22T09:06:50.796Z,98666
2017-07-22T09:09:18.867Z,98670
2017-07-22T09:11:47.041Z,98666
2017-07-22T09:14:15.107Z,98664
2017-07-22T09:16:43.170Z,98659
2017-07-22T09:19:11.243Z,98668
2017-07-22T09:21:39.309Z,98667
2017-07-22T09:24:07.387Z,98672
2017-07-22T09:26:35.469Z,98666
2017-07-22T09:29:03.534Z,98676
2017-07-22T09:31:31.604Z,98670
2017-07-22T09:33:59.729Z,98675
2017-07-22T09:36:27.791Z,98671
2017-07-22T09:38:55.863Z,98675
2017-07-22T09:41:23.990Z,98676
2017-07-22T09:43:52.043Z,98668
2017-07-22T09:46:20.110Z,98678
2017-07-22T09:48:48.178Z,98682
2017-07-22T09:51:17.059Z,98675
2017-07-22T09:53:46.730Z,98671
2017-07-22T09:56:14.810Z,98677
2017-07-22T09:58:42.878Z,98669
2017-07-22T10:01:10.952Z,98674
2017-07-22T10:03:39.023Z,98672
2017-07-22T10:06:07.095Z,98671
2017-07-22T10:08:35.168Z,98665
2017-07-22T10:11:03.250Z,98665
2017-07-22T10:13:31.307Z,98662
2017-07-22T10:15:59.388Z,98658
2017-07-22T10:18:27.467Z,98665
2017-07-22T10:20:55.531Z,98661
2017-07-22T10:23:23.603Z,98658
2017-07-22T10:25:51.680Z,98667
2017-07-22T10:28:19.748Z,98666
2017-07-22T10:30:47.805Z,98667
2017-07-22T10:33:15.883Z,98671
2017-07-22T10:35:43.951Z,98674
2017-07-22T10:38:12.030Z,98671
2017-07-22T10:40:40.091Z,98672
2017-07-22T10:43:08.159Z,98675
2017-07-22T10:45:36.239Z,98674
2017-07-22T10:48:04.319Z,98671
2017-07-22T10:50:32.379Z,98672
2017-07-22T10:53:00.451Z,98666
2017-07-22T10:55:28.519Z,98664
2017-07-22T10:57:56.591Z,98665
2017-07-22T11:00:24.669Z,98660
2017-07-22T11:02:52.734Z,98665
2017-07-22T11:05:20.816Z,98668
2017-07-22T11:07:48.879Z,98666
2017-07-22T11:10:17.768Z,98662
2017-07-22T11:12:45.875Z,98670
2017-07-22T11:15:13.942Z,98668
2017-07-22T11:17:42.012Z,98666
2017-07-22T11:20:10.090Z,98663
2017-07-22T11:22:38.155Z,98665
2017-07-22T11:25:06.238Z,98664
2017-07-22T11:27:34.303Z,98667
2017-07-22T11:30:02.367Z,98671
2017-07-22T11:32:30.440Z,98662
2017-07-22T11:34:58.511Z,98667
2017-07-22T11:37:26.595Z,98664
2017-07-22T11:39:54.659Z,98659
2017-07-22T11:42:22.734Z,98667
2017-07-22T11:44:50.807Z,98663
2017-07-22T11:47:18.882Z,98656
2017-07-22T11:49:46.964Z,98664
2017-07-22T11:52:15.044Z,98659
2017-07-22T11:54:43.127Z,98656
2017-07-22T11:57:12.000Z,98653
2017-07-22T11:59:40.106Z,98660
2017-07-22T12:02:08.229Z,98656
2017-07-22T12:04:36.344Z,98650
2017-07-22T12:07:05.218Z,98659
2017-07-22T12:09:33.283Z,98657
2017-07-22T12:12:01.359Z,98658
2017-07-22T12:14:29.439Z,98657
2017-07-22T12:16:57.499Z,98646
2017-07-22T12:19:25.582Z,98647
2017-07-22T12:21:54.260Z,98638
2017-07-22T12:24:22.332Z,98655
2017-07-22T12:26:50.410Z,98644
2017-07-22T12:29:18.684Z,98644
2017-07-22T12:31:47.544Z,98633
2017-07-22T12:34:15.629Z,98635
2017-07-22T12:36:43.699Z,98637
2017-07-22T12:39:11.775Z,98630
2017-07-22T12:41:39.843Z,98626
2017-07-22T12:44:07.915Z,98624
2017-07-22T12:46:35.986Z,98618
2017-07-22T12:49:04.066Z,98626
2017-07-22T12:51:32.134Z,98623
2017-07-22T12:54:00.218Z,98627
2017-07-22T12:56:28.303Z,98625
2017-07-22T12:58:56.397Z,98625
2017-07-22T13:01:24.472Z,98624
2017-07-22T13:03:52.543Z,98626
2017-07-22T13:06:20.611Z,98621
2017-07-22T13:08:49.448Z,98622
2017-07-22T13:11:17.514Z,98615
2017-07-22T13:13:45.595Z,98614
2017-07-22T13:16:13.671Z,98609
2017-07-22T13:18:41.745Z,98612
2017-07-22T13:21:09.814Z,98605
2017-07-22T13:23:37.888Z,98601
2017-07-22T13:26:05.963Z,98602
2017-07-22T13:28:34.037Z,98593
2017-07-22T13:31:02.118Z,98598
2017-07-22T13:33:30.196Z,98593
2017-07-22T13:35:58.260Z,98591
2017-07-22T13:38:26.340Z,98590
2017-07-22T13:40:54.399Z,98588
2017-07-22T13:43:22.479Z,98583
2017-07-22T13:45:50.561Z,98580
2017-07-22T13:48:18.651Z,98587
2017-07-22T13:50:46.714Z,98581
2017-07-22T13:53:14.779Z,98579
2017-07-22T13:55:42.853Z,98568
2017-07-22T13:58:10.920Z,98571
2017-07-22T14:00:38.988Z,98572
2017-07-22T14:03:07.050Z,98572
2017-07-22T14:05:35.115Z,98567
2017-07-22T14:08:03.204Z,98565
2017-07-22T14:10:31.275Z,98573
2017-07-22T14:12:59.347Z,98570
2017-07-22T14:15:27.433Z,98573
2017-07-22T14:17:55.497Z,98582
2017-07-22T14:20:23.598Z,98571
2017-07-22T14:22:51.658Z,98574
2017-07-22T14:25:19.735Z,98569
2017-07-22T14:27:47.796Z,98569
2017-07-22T14:30:15.869Z,98579
2017-07-22T14:32:44.718Z,98585
2017-07-22T14:35:12.787Z,98590
2017-07-22T14:37:40.864Z,98589
2017-07-22T14:40:08.940Z,98589
2017-07-22T14:42:37.021Z,98590
2017-07-22T14:45:05.087Z,98587
2017-07-22T14:47:33.172Z,98591
2017-07-22T14:50:01.252Z,98591
2017-07-22T14:52:29.326Z,98595
2017-07-22T14:54:57.395Z,98589
2017-07-22T14:57:25.472Z,98591
2017-07-22T14:59:53.545Z,98590
2017-07-22T15:02:21.616Z,98581
2017-07-22T15:04:49.702Z,98574
2017-07-22T15:07:18.544Z,98580
2017-07-22T15:09:46.612Z,98585
2017-07-22T15:12:14.682Z,98586
2017-07-22T15:14:42.761Z,98575
2017-07-22T15:17:10.825Z,98578
2017-07-22T15:19:38.903Z,98567
2017-07-22T15:22:06.973Z,98570
2017-07-22T15:24:35.043Z,98582
2017-07-22T15:27:03.114Z,98578
2017-07-22T15:29:31.211Z,98583
2017-07-22T15:31:59.280Z,98584
2017-07-22T15:34:27.347Z,98574
2017-07-22T15:36:55.427Z,98577
2017-07-22T15:39:23.518Z,98582
2017-07-22T15:41:51.595Z,98577
2017-07-22T15:44:19.659Z,98578
2017-07-22T15:46:47.731Z,98565
2017-07-22T15:49:15.803Z,98580
2017-07-22T15:51:43.874Z,98571
2017-07-22T15:54:11.944Z,98571
2017-07-22T15:56:40.020Z,98568
2017-07-22T15:59:08.085Z,98573
2017-07-22T16:01:36.165Z,98577
2017-07-22T16:04:04.222Z,98575
2017-07-22T16:06:32.311Z,98566
2017-07-22T16:09:00.380Z,98566
2017-07-22T16:11:28.451Z,98573
2017-07-22T16:13:56.540Z,98567
2017-07-22T16:16:24.603Z,98563
2017-07-22T16:18:52.683Z,98573
2017-07-22T16:21:20.743Z,98570
2017-07-22T16:23:48.828Z,98567
2017-07-22T16:26:16.904Z,98566
2017-07-22T16:28:45.755Z,98561
2017-07-22T16:31:13.836Z,98558
2017-07-22T16:33:41.916Z,98569
2017-07-22T16:36:10.040Z,98562
2017-07-22T16:38:38.128Z,98571
2017-07-22T16:41:06.207Z,98581
2017-07-22T16:43:34.283Z,98579
2017-07-22T16:46:02.857Z,98564
2017-07-22T16:48:31.240Z,98568
2017-07-22T16:50:59.308Z,98561
2017-07-22T16:53:27.385Z,98567
2017-07-22T16:55:55.460Z,98570
2017-07-22T16:58:23.532Z,98565
2017-07-22T17:00:51.607Z,98562
2017-07-22T17:03:19.671Z,98561
2017-07-22T17:05:47.757Z,98566
2017-07-22T17:08:15.841Z,98567
2017-07-22T17:10:43.913Z,98556
2017-07-22T17:13:11.984Z,98564
2017-07-22T17:15:40.060Z,98564
2017-07-22T17:18:08.143Z,98560
2017-07-22T17:20:36.222Z,98566
2017-07-22T17:23:04.339Z,98552
2017-07-22T17:25:32.420Z,98559
2017-07-22T17:28:00.496Z,98560
2017-07-22T17:30:28.571Z,98553
2017-07-22T17:32:56.651Z,98561
2017-07-22T17:35:24.720Z,98563
2017-07-22T17:37:52.812Z,98558
2017-07-22T17:40:20.878Z,98558
2017-07-22T17:42:48.952Z,98559
2017-07-22T17:45:17.023Z,98557
2017-07-22T17:47:45.096Z,98563
2017-07-22T17:50:13.167Z,98562
2017-07-22T17:52:41.255Z,98560
2017-07-22T17:55:09.328Z,98557
2017-07-22T17:57:37.415Z,98555
2017-07-22T18:00:05.475Z,98556
2017-07-22T18:02:33.557Z,98555
2017-07-22T18:05:01.643Z,98564
2017-07-22T18:07:29.720Z,98558
2017-07-22T18:09:57.817Z,98556
2017-07-22T18:12:25.907Z,98561
2017-07-22T18:14:53.991Z,98557
2017-07-22T18:17:22.062Z,98558
2017-07-22T18:19:50.146Z,98563
2017-07-22T18:22:18.226Z,98558
2017-07-22T18:24:46.299Z,98552
2017-07-22T18:27:14.370Z,98548
2017-07-22T18:29:42.528Z,98558
2017-07-22T18:32:10.598Z,98561
2017-07-22T18:34:38.675Z,98573
2017-07-22T18:37:06.744Z,98572
2017-07-22T18:39:34.818Z,98570
2017-07-22T18:42:02.891Z,98570
2017-07-22T18:44:30.963Z,98575
2017-07-22T18:46:59.041Z,98567
2017-07-22T18:49:27.103Z,98566
2017-07-22T18:51:55.180Z,98569
2017-07-22T18:54:23.262Z,98570
2017-07-22T18:56:51.334Z,98569
2017-07-22T18:59:19.719Z,98567
2017-07-22T19:01:47.802Z,98577
2017-07-22T19:04:15.858Z,98571
2017-07-22T19:06:43.935Z,98579
2017-07-22T19:09:12.008Z,98574
2017-07-22T19:11:40.195Z,98580
2017-07-22T19:14:09.043Z,98576
2017-07-22T19:16:37.108Z,98579
2017-07-22T19:19:05.174Z,98579
2017-07-22T19:21:33.241Z,98589
2017-07-22T19:24:01.323Z,98586
2017-07-22T19:26:29.432Z,98590
2017-07-22T19:28:57.506Z,98585
2017-07-22T19:31:25.714Z,98588
2017-07-22T19:33:53.795Z,98593
2017-07-22T19:36:21.864Z,98595
2017-07-22T19:38:50.703Z,98601
2017-07-22T19:41:18.803Z,98603
2017-07-22T19:43:47.643Z,98595
2017-07-22T19:46:15.719Z,98608
2017-07-22T19:48:43.784Z,98602
2017-07-22T19:51:11.859Z,98602
2017-07-22T19:53:39.931Z,98601
2017-07-22T19:56:08.000Z,98593
2017-07-22T19:58:36.076Z,98600
2017-07-22T20:01:04.146Z,98611
2017-07-22T20:03:32.223Z,98610
2017-07-22T20:06:00.406Z,98612
2017-07-22T20:08:28.464Z,98614
2017-07-22T20:10:56.539Z,98613
2017-07-22T20:13:24.622Z,98613
2017-07-22T20:15:52.703Z,98619
2017-07-22T20:18:20.797Z,98618
2017-07-22T20:20:48.862Z,98620
2017-07-22T20:23:16.946Z,98614
2017-07-22T20:25:45.020Z,98613
2017-07-22T20:28:13.095Z,98620
2017-07-22T20:30:41.158Z,98617
2017-07-22T20:33:09.232Z,98615
2017-07-22T20:35:37.307Z,98608
2017-07-22T20:38:05.471Z,98605
2017-07-22T20:40:33.538Z,98606
2017-07-22T20:43:01.622Z,98608
2017-07-22T20:45:29.695Z,98609
2017-07-22T20:47:57.759Z,98609
2017-07-22T20:50:25.845Z,98606
2017-07-22T20:52:53.910Z,98602
2017-07-22T20:55:21.990Z,98596
2017-07-22T20:57:50.055Z,98594
2017-07-22T21:00:18.125Z,98587
2017-07-22T21:02:46.190Z,98584
2017-07-22T21:05:14.267Z,98583
2017-07-22T21:07:42.337Z,98582
2017-07-22T21:10:10.407Z,98583
2017-07-22T21:12:38.472Z,98577
2017-07-22T21:15:06.617Z,98571
2017-07-22T21:17:34.702Z,98577
2017-07-22T21:20:02.767Z,98576
2017-07-22T21:22:30.856Z,98582
2017-07-22T21:24:58.931Z,98579
2017-07-22T21:27:27.006Z,98574
2017-07-22T21:29:55.180Z,98572
2017-07-22T21:32:23.288Z,98578
2017-07-22T21:34:52.116Z,98575
2017-07-22T21:37:20.187Z,98572
2017-07-22T21:39:48.242Z,98571
2017-07-22T21:42:16.335Z,98575
2017-07-22T21:44:44.405Z,98567
2017-07-22T21:47:12.477Z,98574
2017-07-22T21:49:40.610Z,98581
2017-07-22T21:52:09.465Z,98584
2017-07-22T21:54:37.541Z,98586
2017-07-22T21:57:05.610Z,98580
2017-07-22T21:59:33.679Z,98581
2017-07-22T22:02:01.746Z,98579
2017-07-22T22:04:29.818Z,98581
2017-07-22T22:06:57.879Z,98581
2017-07-22T22:09:25.967Z,98571
2017-07-22T22:11:54.262Z,98559
2017-07-22T22:14:22.318Z,98565
2017-07-22T22:16:50.395Z,98546
2017-07-22T22:19:18.479Z,98544
2017-07-22T22:21:46.551Z,98530
2017-07-22T22:24:14.635Z,98536
2017-07-22T22:26:42.708Z,98529
2017-07-22T22:29:10.771Z,98519
2017-07-22T22:31:38.845Z,98522
2017-07-22T22:34:06.992Z,98537
2017-07-22T22:36:35.716Z,98538
2017-07-22T22:39:04.539Z,98534
2017-07-22T22:41:32.668Z,98531
2017-07-22T22:44:00.730Z,98527
2017-07-22T22:46:28.811Z,98519
2017-07-22T22:48:56.879Z,98517
2017-07-22T22:51:24.954Z,98511
2017-07-22T22:53:53.027Z,98519
2017-07-22T22:56:35.807Z,98537
2017-07-22T22:59:03.895Z,98541
2017-07-22T23:01:31.970Z,98542
2017-07-22T23:04:00.043Z,98549
2017-07-22T23:06:28.117Z,98544
2017-07-22T23:08:56.192Z,98547
2017-07-22T23:11:24.294Z,98541
2017-07-22T23:13:53.129Z,98545
2017-07-22T23:16:21.202Z,98539
2017-07-22T23:18:49.275Z,98541
2017-07-22T23:21:17.355Z,98546
2017-07-22T23:23:45.423Z,98562
2017-07-22T23:26:13.492Z,98569
2017-07-22T23:28:41.570Z,98566
2017-07-22T23:31:09.635Z,98559
2017-07-22T23:33:37.712Z,98568
2017-07-22T23:36:05.779Z,98568
2017-07-22T23:38:33.837Z,98574
2017-07-22T23:41:01.922Z,98574
2017-07-22T23:43:30.004Z,98579
2017-07-22T23:45:58.083Z,98573
2017-07-22T23:48:26.159Z,98576
2017-07-22T23:50:54.239Z,98581
2017-07-22T23:53:22.312Z,98584
2017-07-22T23:55:50.378Z,98578
2017-07-22T23:58:18.459Z,98569
